Time;durP1;ratioP1;P1;durP2;ratioP2;P2;SDS_P1;SDS_P2;PMS_P1;PMS_P2;Temp;Humidity;BMP_temperature;BMP_pressure;BME280_temperature;BME280_humidity;BME280_pressure;Samples;Min_cycle;Max_cycle;Signal;HPM_P1;HPM_P2
2024/01/29 00:00:59;;;;;;;;;;;;;;;;;;;;;
2024/01/29 00:04:08;;;;;;;67.30;42.00;;;;;;;0.62;100.00;102413.17;108825;1278;22207;-77
2024/01/29 00:07:24;;;;;;;61.40;41.50;;;;;;;0.62;100.00;102412.13;109044;1270;21981;-77
2024/01/29 00:14:10;;;;;;;55.80;36.10;;;;;;;0.58;100.00;102407.58;109891;1267;24316;-77
2024/01/29 00:17:14;;;;;;;55.50;37.70;;;;;;;0.59;100.00;102403.48;109478;1269;23640;-75
2024/01/29 00:20:52;;;;;;;59.60;38.90;;;;;;;0.61;100.00;102394.63;109436;1269;23031;-78
2024/01/29 00:24:00;;;;;;;58.80;36.60;;;;;;;0.60;100.00;102399.56;109748;1271;23752;-76
2024/01/29 00:27:27;;;;;;;54.10;36.40;;;;;;;0.61;100.00;102404.91;109533;1271;22043;-77
2024/01/29 00:30:36;;;;;;;49.10;34.10;;;;;;;0.62;100.00;102407.86;108995;1276;22127;-76
2024/01/29 00:34:28;;;;;;;69.60;42.90;;;;;;;0.65;100.00;102406.07;109105;1273;22311;-77
2024/01/29 00:37:49;;;;;;;51.60;37.10;;;;;;;0.69;100.00;102409.81;109214;1273;21997;-77
2024/01/29 00:41:29;;;;;;;60.80;40.10;;;;;;;0.71;100.00;102408.20;109186;1273;23784;-76
2024/01/29 00:44:47;;;;;;;55.30;40.50;;;;;;;0.74;100.00;102410.02;109184;1273;22995;-75
2024/01/29 00:48:04;;;;;;;54.30;36.50;;;;;;;0.74;100.00;102412.92;109522;1266;22307;-77
2024/01/29 00:51:07;;;;;;;;;;;;;;;;;;;;;
2024/01/29 00:54:31;;;;;;;59.00;42.40;;;;;;;0.77;100.00;102415.59;110559;1260;22177;-78
2024/01/29 00:57:37;;;;;;;51.90;42.40;;;;;;;0.78;100.00;102414.77;110554;1249;23023;-75
2024/01/29 01:00:53;;;;;;;53.10;39.80;;;;;;;0.83;100.00;102418.73;110056;1266;21975;-76
2024/01/29 01:04:02;;;;;;;47.50;37.50;;;;;;;0.82;100.00;102417.66;110100;1265;23894;-76
2024/01/29 01:11:36;;;;;;;55.10;40.30;;;;;;;0.80;100.00;102412.61;109733;1269;21981;-75
2024/01/29 01:18:54;;;;;;;53.00;37.20;;;;;;;0.81;100.00;102411.79;110099;1264;21969;-77
2024/01/29 01:22:15;;;;;;;50.20;37.10;;;;;;;0.82;100.00;102414.41;110294;1264;23034;-77
2024/01/29 01:26:01;;;;;;;;;;;;;;;;;;;;;
2024/01/29 01:29:15;;;;;;;46.30;33.80;;;;;;;0.86;100.00;102415.05;109053;1276;24335;-77
2024/01/29 01:33:10;;;;;;;46.70;34.30;;;;;;;0.86;100.00;102417.29;108800;1280;22015;-76
2024/01/29 01:35:45;;;;;;;46.40;34.50;;;;;;;0.85;100.00;102417.23;108727;1278;23651;-75
2024/01/29 01:40:01;;;;;;;49.60;35.20;;;;;;;0.85;100.00;102416.21;108883;1278;23065;-76
2024/01/29 01:43:10;;;;;;;;;;;;;;;;;;;;;
2024/01/29 01:46:32;;;;;;;54.20;36.50;;;;;;;0.90;100.00;102417.25;108847;1278;21991;-76
2024/01/29 01:50:47;;;;;;;48.40;34.80;;;;;;;0.87;100.00;102415.95;108918;1278;22917;-78
2024/01/29 01:54:29;;;;;;;50.80;34.30;;;;;;;0.82;100.00;102415.77;108529;1282;22034;-77
2024/01/29 01:57:50;;;;;;;;;;;;;;;;;;;;;
2024/01/29 02:00:58;;;;;;;55.80;39.10;;;;;;;0.73;100.00;102407.89;109266;1273;22044;-77
2024/01/29 02:04:43;;;;;;;;;;;;;;;0.66;100.00;102401.33;109158;1273;21972;-76
2024/01/29 02:08:03;;;;;;;51.10;36.20;;;;;;;0.57;100.00;102402.55;109719;1268;23183;-76
2024/01/29 02:11:05;;;;;;;51.90;38.40;;;;;;;0.53;100.00;102391.42;109269;1269;22478;-76
2024/01/29 02:14:18;;;;;;;46.60;35.80;;;;;;;0.57;100.00;102392.27;109529;1269;22777;-77
2024/01/29 02:17:31;;;;;;;50.50;38.20;;;;;;;0.58;100.00;102391.95;109016;1275;23042;-77
2024/01/29 02:28:28;;;;;;;;;;;;;;;;;;;;;
2024/01/29 02:32:13;;;;;;;50.80;38.70;;;;;;;0.56;100.00;102397.89;109356;1273;22017;-77
2024/01/29 02:39:15;;;;;;;49.20;41.10;;;;;;;0.62;100.00;102393.81;108494;1283;22024;-77
2024/01/29 02:42:17;;;;;;;;;;;;;;;;;;;;;
2024/01/29 02:45:51;;;;;;;49.60;38.40;;;;;;;0.63;100.00;102383.22;108188;1288;23761;-79
2024/01/29 02:49:18;;;;;;;50.00;39.50;;;;;;;0.61;100.00;102382.46;108330;1284;23188;-78
2024/01/29 02:52:36;;;;;;;;;;;;;;;;;;;;;
2024/01/29 02:55:56;;;;;;;48.80;41.20;;;;;;;0.58;100.00;102381.18;108607;1281;23625;-78
2024/01/29 03:02:24;;;;;;;52.90;42.70;;;;;;;0.57;100.00;102376.50;108981;1276;22000;-78
2024/01/29 03:05:46;;;;;;;;;;;;;;;;;;;;;
2024/01/29 03:09:10;;;;;;;;;;;;;;;;;;;;;
2024/01/29 03:12:08;;;;;;;58.80;43.80;;;;;;;0.51;100.00;102371.67;109771;1266;21979;-77
2024/01/29 03:15:44;;;;;;;49.70;43.40;;;;;;;0.50;100.00;102369.91;109004;1271;22759;-78
2024/01/29 03:18:57;;;;;;;52.50;43.40;;;;;;;0.49;100.00;102362.00;109500;1271;21988;-77
2024/01/29 03:22:47;;;;;;;53.30;41.90;;;;;;;0.50;100.00;102363.56;109603;1271;24327;-78
2024/01/29 03:26:28;;;;;;;;;;;;;;;;;;;;;
2024/01/29 03:29:47;;;;;;;51.40;42.50;;;;;;;0.55;100.00;102358.95;109358;1270;22005;-77
2024/01/29 03:37:08;;;;;;;50.10;42.20;;;;;;;0.49;100.00;102344.67;109763;1270;21990;-77
2024/01/29 03:40:49;;;;;;;49.00;41.70;;;;;;;0.46;100.00;102344.92;109374;1271;22137;-77
2024/01/29 03:44:16;;;;;;;49.70;43.70;;;;;;;0.45;100.00;102341.30;109305;1273;21994;-77
2024/01/29 03:47:28;;;;;;;51.30;41.60;;;;;;;0.46;100.00;102337.75;108932;1276;21986;-77
2024/01/29 03:50:28;;;;;;;54.60;43.90;;;;;;;0.48;100.00;102335.23;108989;1276;21987;-77
2024/01/29 03:54:05;;;;;;;49.90;42.60;;;;;;;0.49;100.00;102331.33;108883;1276;23738;-77
2024/01/29 03:57:00;;;;;;;53.60;43.20;;;;;;;0.49;100.00;102328.77;108744;1276;22209;-78
2024/01/29 03:59:58;;;;;;;;;;;;;;;;;;;;;
2024/01/29 04:03:17;;;;;;;57.70;47.10;;;;;;;0.52;100.00;102325.61;108951;1276;21989;-77
2024/01/29 04:06:32;;;;;;;51.30;42.50;;;;;;;0.51;100.00;102329.54;109400;1269;23430;-77
2024/01/29 04:10:28;;;;;;;57.10;49.60;;;;;;;0.51;100.00;102327.98;109838;1268;22683;-78
2024/01/29 04:13:39;;;;;;;;;;;;;;;;;;;;;
2024/01/29 04:16:48;;;;;;;56.00;46.30;;;;;;;0.48;100.00;102313.13;109267;1274;21995;-77
2024/01/29 04:19:51;;;;;;;51.70;42.50;;;;;;;0.48;100.00;102309.39;109120;1274;24307;-78
2024/01/29 04:23:01;;;;;;;87.00;73.80;;;;;;;0.48;100.00;102315.02;109659;1270;22009;-77
2024/01/29 04:26:17;;;;;;;84.50;70.50;;;;;;;0.48;100.00;102321.19;109726;1270;22349;-77
2024/01/29 04:30:28;;;;;;;51.20;44.20;;;;;;;0.46;100.00;102315.48;109263;1274;21745;-76
2024/01/29 04:34:09;;;;;;;45.50;39.70;;;;;;;0.44;100.00;102315.05;109141;1271;23653;-76
2024/01/29 04:37:30;;;;;;;50.70;41.20;;;;;;;0.43;100.00;102315.36;108883;1277;22082;-77
2024/01/29 04:40:33;;;;;;;48.40;42.00;;;;;;;0.43;100.00;102311.61;108874;1277;22456;-77
2024/01/29 04:44:11;;;;;;;;;;;;;;;;;;;;;
2024/01/29 04:47:08;;;;;;;50.00;41.20;;;;;;;0.44;100.00;102304.42;108388;1287;23001;-78
2024/01/29 04:49:47;;;;;;;55.10;40.90;;;;;;;0.46;100.00;102297.80;108102;1288;22061;-77
2024/01/29 04:52:57;;;;;;;50.50;41.90;;;;;;;0.47;100.00;102291.18;108146;1287;22222;-77
2024/01/29 05:00:19;;;;;;;48.00;38.90;;;;;;;0.38;100.00;102285.39;108191;1287;22082;-76
2024/01/29 05:03:25;;;;;;;54.50;40.40;;;;;;;0.39;100.00;102288.66;108552;1283;24464;-77
2024/01/29 05:06:36;;;;;;;;;;;;;;;;;;;;;
2024/01/29 05:09:59;;;;;;;84.80;61.30;;;;;;;0.42;100.00;102284.14;108661;1281;24315;-77
2024/01/29 05:13:12;;;;;;;84.60;60.10;;;;;;;0.42;100.00;102285.36;108476;1283;22004;-76
2024/01/29 05:16:15;;;;;;;;;;;;;;;;;;;;;
2024/01/29 05:19:43;;;;;;;138.60;96.80;;;;;;;0.47;100.00;102283.65;108641;1280;22814;-78
2024/01/29 05:23:03;;;;;;;;;;;;;;;;;;;;;
2024/01/29 05:26:00;;;;;;;78.00;50.70;;;;;;;0.49;100.00;102285.26;108472;1282;22020;-77
2024/01/29 05:29:15;;;;;;;57.40;45.30;;;;;;;0.52;100.00;102285.01;108491;1282;23616;-79
2024/01/29 05:39:52;;;;;;;50.90;39.40;;;;;;;0.46;100.00;102272.96;108555;1282;23660;-77
2024/01/29 05:43:02;;;;;;;57.30;43.80;;;;;;;0.47;100.00;102271.81;108441;1282;21999;-79
2024/01/29 05:47:31;;;;;;;47.00;39.80;;;;;;;0.47;100.00;102268.71;108577;1279;23085;-78
2024/01/29 05:50:01;;;;;;;46.20;39.40;;;;;;;0.48;100.00;102259.16;108198;1284;23605;-78
2024/01/29 05:53:11;;;;;;;57.10;44.10;;;;;;;0.49;100.00;102260.41;108361;1284;23091;-77
2024/01/29 05:56:12;;;;;;;52.20;42.80;;;;;;;0.48;100.00;102258.14;108424;1284;23096;-77
2024/01/29 06:02:42;;;;;;;;;;;;;;;;;;;;;
2024/01/29 06:05:33;;;;;;;59.10;43.80;;;;;;;0.45;100.00;102252.75;108248;1286;24344;-79
2024/01/29 06:08:19;;;;;;;56.00;45.60;;;;;;;0.43;100.00;102246.50;108258;1286;22001;-78
2024/01/29 06:11:12;;;;;;;55.00;42.30;;;;;;;0.40;100.00;102242.80;108142;1286;22139;-79
2024/01/29 06:14:07;;;;;;;63.20;45.30;;;;;;;0.36;100.00;102244.23;108464;1282;22940;-78
2024/01/29 06:17:05;;;;;;;60.50;45.70;;;;;;;0.34;100.00;102243.98;108475;1282;21992;-77
2024/01/29 06:20:00;;;;;;;64.90;49.40;;;;;;;0.33;100.00;102242.41;108589;1277;23768;-79
2024/01/29 06:22:38;;;;;;;60.50;47.10;;;;;;;0.31;100.00;102242.33;108543;1277;23874;-78
2024/01/29 06:25:42;;;;;;;;;;;;;;;;;;;;;
2024/01/29 06:32:01;;;;;;;67.90;49.80;;;;;;;0.21;100.00;102235.66;108997;1274;21991;-77
2024/01/29 06:34:57;;;;;;;68.30;50.00;;;;;;;0.21;100.00;102238.54;109224;1274;21991;-78
2024/01/29 06:38:21;;;;;;;68.00;48.40;;;;;;;0.19;100.00;102246.68;110360;1265;21977;-78
2024/01/29 06:41:40;;;;;;;68.50;46.90;;;;;;;0.16;100.00;102254.48;109941;1269;23063;-79
2024/01/29 06:45:13;;;;;;;76.80;55.30;;;;;;;0.17;100.00;102257.27;109032;1274;23641;-77
2024/01/29 06:48:14;;;;;;;74.10;56.70;;;;;;;0.20;100.00;102256.67;108975;1275;22028;-77
2024/01/29 06:51:29;;;;;;;84.20;63.20;;;;;;;0.22;100.00;102254.68;109004;1275;22065;-76
2024/01/29 06:55:00;;;;;;;68.20;50.00;;;;;;;0.22;100.00;102252.96;109118;1275;21974;-77
2024/01/29 06:58:37;;;;;;;67.20;49.40;;;;;;;0.19;100.00;102256.64;108500;1281;23654;-77
2024/01/29 07:01:34;;;;;;;57.20;44.70;;;;;;;0.19;100.00;102260.39;108520;1281;22004;-77
2024/01/29 07:04:59;;;;;;;65.00;47.00;;;;;;;0.22;100.00;102263.58;108939;1276;22167;-77
2024/01/29 07:08:11;;;;;;;93.20;65.90;;;;;;;0.24;100.00;102264.86;109137;1276;22121;-76
2024/01/29 07:11:31;;;;;;;75.90;53.90;;;;;;;0.25;100.00;102264.71;109224;1273;23059;-78
2024/01/29 07:14:49;;;;;;;;;;;;;;;;;;;;;
2024/01/29 07:19:06;;;;;;;;;;;;;;;;;;;;;
2024/01/29 07:22:38;;;;;;;;;;;;;;;;;;;;;
2024/01/29 07:27:17;;;;;;;68.70;50.90;;;;;;;0.35;100.00;102270.91;109914;1269;24235;-78
2024/01/29 07:31:00;;;;;;;68.20;47.50;;;;;;;0.37;100.00;102275.77;109929;1269;22189;-78
2024/01/29 07:34:32;;;;;;;;;;;;;;;;;;;;;
2024/01/29 07:37:17;;;;;;;62.80;49.10;;;;;;;0.50;100.00;102271.77;109353;1272;21988;-78
2024/01/29 07:40:56;;;;;;;;;;;;;;;;;;;;;
2024/01/29 07:44:58;;;;;;;;;;;;;;;;;;;;;
2024/01/29 07:49:01;;;;;;;66.10;51.20;;;;;;;0.63;100.00;102268.75;109318;1274;21994;-77
2024/01/29 07:51:58;;;;;;;68.20;53.60;;;;;;;0.66;100.00;102267.84;108316;1285;23761;-78
2024/01/29 07:54:40;;;;;;;65.00;51.70;;;;;;;0.72;100.00;102260.15;108340;1282;22082;-78
2024/01/29 07:57:54;;;;;;;69.20;52.80;;;;;;;0.78;100.00;102262.25;108393;1284;22101;-75
2024/01/29 08:00:55;;;;;;;;;;;;;;;;;;;;;
2024/01/29 08:07:31;;;;;;;;;;;;;;;;;;;;;
2024/01/29 08:10:36;;;;;;;73.00;53.90;;;;;;;1.03;100.00;102265.97;108284;1289;22480;-80
2024/01/29 08:13:16;;;;;;;;;;;;;;;1.08;100.00;102263.05;108007;1289;21983;-78
2024/01/29 08:16:12;;;;;;;65.70;47.00;;;;;;;1.08;100.00;102259.45;108082;1286;22002;-77
2024/01/29 08:19:27;;;;;;;;;;;;;;;;;;;;;
2024/01/29 08:22:02;;;;;;;63.60;47.30;;;;;;;1.23;100.00;102262.82;108345;1282;22114;-78
2024/01/29 08:25:28;;;;;;;69.80;53.70;;;;;;;1.23;100.00;102246.70;108225;1288;22529;-78
2024/01/29 08:28:15;;;;;;;65.50;50.30;;;;;;;1.35;100.00;102248.42;108219;1282;23078;-77
2024/01/29 08:30:51;;;;;;;64.30;49.80;;;;;;;1.53;100.00;102261.34;108566;1279;21988;-75
2024/01/29 08:33:38;;;;;;;63.80;50.10;;;;;;;1.63;100.00;102262.83;108615;1279;24325;-76
2024/01/29 08:36:07;;;;;;;67.30;51.30;;;;;;;1.71;100.00;102262.05;108619;1279;23657;-77
2024/01/29 08:38:52;;;;;;;71.60;54.70;;;;;;;1.82;100.00;102269.75;108623;1279;22172;-78
2024/01/29 08:42:16;;;;;;;79.90;51.90;;;;;;;1.96;100.00;102265.14;108794;1275;22751;-79
2024/01/29 08:44:56;;;;;;;63.20;48.10;;;;;;;2.11;100.00;102262.48;109168;1273;23816;-76
2024/01/29 08:47:43;;;;;;;65.20;48.80;;;;;;;2.28;100.00;102260.01;109013;1276;22007;-78
2024/01/29 08:50:54;;;;;;;63.90;49.60;;;;;;;2.45;100.00;102263.75;108731;1281;24094;-74
2024/01/29 08:53:48;;;;;;;94.00;69.40;;;;;;;2.72;100.00;102265.62;108513;1281;23719;-74
2024/01/29 08:57:09;;;;;;;;;;;;;;;;;;;;;
2024/01/29 09:00:20;;;;;;;65.50;51.70;;;;;;;3.38;100.00;102263.39;108534;1281;21997;-76
2024/01/29 09:03:13;;;;;;;53.90;43.60;;;;;;;3.68;100.00;102264.39;108535;1282;22568;-76
2024/01/29 09:05:57;;;;;;;59.90;45.60;;;;;;;3.88;100.00;102264.30;108716;1276;22088;-76
2024/01/29 09:08:36;;;;;;;53.80;44.80;;;;;;;4.10;100.00;102264.39;108922;1275;21981;-77
2024/01/29 09:11:16;;;;;;;61.70;46.80;;;;;;;4.35;100.00;102263.98;109249;1273;21987;-75
2024/01/29 09:13:51;;;;;;;54.00;44.10;;;;;;;4.46;100.00;102260.92;109271;1260;23758;-77
2024/01/29 09:16:32;;;;;;;63.40;47.90;;;;;;;4.59;100.00;102262.35;109389;1273;22749;-75
2024/01/29 09:19:16;;;;;;;94.30;74.10;;;;;;;4.71;100.00;102257.55;109326;1273;22738;-78
2024/01/29 09:21:58;;;;;;;122.80;96.00;;;;;;;4.78;100.00;102255.27;109348;1270;23039;-77
2024/01/29 09:24:57;;;;;;;93.60;63.10;;;;;;;4.90;100.00;102256.66;109550;1270;22349;-76
2024/01/29 09:27:42;;;;;;;71.30;53.10;;;;;;;5.01;100.00;102257.36;109312;1270;21983;-77
2024/01/29 09:30:31;;;;;;;58.80;44.20;;;;;;;5.10;100.00;102256.98;109699;1270;24321;-76
2024/01/29 09:33:07;;;;;;;57.00;45.30;;;;;;;5.18;100.00;102255.90;109461;1270;23631;-77
2024/01/29 09:36:01;;;;;;;68.60;56.00;;;;;;;5.29;100.00;102254.33;109654;1270;21977;-76
2024/01/29 09:38:46;;;;;;;55.10;43.10;;;;;;;5.43;100.00;102255.39;109607;1270;23620;-78
2024/01/29 09:41:51;;;;;;;57.00;43.90;;;;;;;5.51;100.00;102254.11;109706;1270;21981;-77
2024/01/29 09:44:43;;;;;;;50.20;39.70;;;;;;;5.61;100.00;102258.58;109447;1270;22454;-77
2024/01/29 09:47:15;;;;;;;47.20;39.00;;;;;;;5.66;100.00;102259.51;110103;1265;22044;-78
2024/01/29 09:50:42;;;;;;;;;;;;;;;;;;;;;
2024/01/29 09:53:31;;;;;;;52.20;39.10;;;;;;;5.67;100.00;102260.55;109263;1274;23066;-77
2024/01/29 09:56:06;;;;;;;54.70;42.00;;;;;;;5.71;100.00;102258.02;109071;1271;22001;-77
2024/01/29 09:58:56;;;;;;;47.80;39.60;;;;;;;5.76;100.00;102252.55;109083;1274;23647;-79
2024/01/29 10:02:01;;;;;;;51.00;40.50;;;;;;;5.82;100.00;102250.90;109251;1274;22124;-78
2024/01/29 10:05:29;;;;;;;48.50;38.10;;;;;;;5.85;100.00;102251.27;109222;1274;22295;-77
2024/01/29 10:08:10;;;;;;;48.00;37.90;;;;;;;5.87;100.00;102251.13;109304;1273;23623;-77
2024/01/29 10:11:13;;;;;;;46.10;37.30;;;;;;;5.94;100.00;102254.17;105218;1258;5443320;-77
2024/01/29 10:14:02;;;;;;;42.00;35.70;;;;;;;6.06;100.00;102248.43;109685;1269;22325;-77
2024/01/29 10:16:57;;;;;;;43.90;34.70;;;;;;;6.18;100.00;102241.14;110010;1269;23618;-78
2024/01/29 10:19:53;;;;;;;44.60;35.80;;;;;;;6.32;100.00;102238.35;109728;1264;22005;-78
2024/01/29 10:23:02;;;;;;;47.30;36.10;;;;;;;6.45;100.00;102236.56;109715;1269;22049;-78
2024/01/29 10:26:19;;;;;;;40.90;34.00;;;;;;;6.51;100.00;102233.69;110288;1265;23637;-79
2024/01/29 10:29:18;;;;;;;43.50;34.60;;;;;;;6.55;100.00;102231.29;110100;1265;23055;-79
2024/01/29 10:32:22;;;;;;;42.80;34.90;;;;;;;6.61;100.00;102223.91;110195;1265;22130;-78
2024/01/29 10:34:55;;;;;;;45.30;38.30;;;;;;;6.69;100.00;102223.64;110233;1265;23657;-77
2024/01/29 10:38:18;;;;;;;39.20;33.20;;;;;;;6.80;100.00;102226.48;110121;1265;22187;-77
2024/01/29 10:41:26;;;;;;;41.20;30.50;;;;;;;6.83;100.00;102225.64;110240;1265;22057;-77
2024/01/29 10:44:39;;;;;;;35.70;28.70;;;;;;;6.77;100.00;102223.69;110112;1265;21963;-77
2024/01/29 10:47:50;;;;;;;34.00;29.10;;;;;;;6.68;100.00;102217.58;109507;1272;21990;-78
2024/01/29 10:50:45;;;;;;;35.10;29.70;;;;;;;6.60;100.00;102211.27;109420;1272;21982;-78
2024/01/29 10:53:25;;;;;;;36.90;29.70;;;;;;;6.56;100.00;102207.95;109214;1272;23038;-78
2024/01/29 10:56:02;;;;;;;38.60;29.40;;;;;;;6.63;100.00;102217.02;109419;1272;22001;-77
2024/01/29 10:59:30;;;;;;;40.10;30.50;;;;;;;6.61;100.00;102213.52;109373;1272;21989;-76
2024/01/29 11:02:44;;;;;;;37.70;29.60;;;;;;;6.67;100.00;102207.52;109361;1272;22023;-77
2024/01/29 11:05:29;;;;;;;37.00;27.30;;;;;;;6.80;100.00;102205.19;109257;1271;22012;-78
2024/01/29 11:08:31;;;;;;;34.30;28.80;;;;;;;6.89;100.00;102200.24;109531;1271;21968;-78
2024/01/29 11:11:18;;;;;;;33.40;26.20;;;;;;;6.93;100.00;102197.33;109085;1275;22053;-78
2024/01/29 11:14:04;;;;;;;32.00;26.40;;;;;;;6.95;100.00;102191.11;109019;1275;24364;-77
2024/01/29 11:17:01;;;;;;;32.40;27.10;;;;;;;6.96;100.00;102183.85;108935;1275;23015;-78
2024/01/29 11:20:14;;;;;;;32.00;25.90;;;;;;;7.01;100.00;102186.13;109482;1275;22037;-78
2024/01/29 11:23:10;;;;;;;33.40;27.30;;;;;;;7.04;100.00;102189.79;109096;1275;22028;-77
2024/01/29 11:26:15;;;;;;;34.80;26.80;;;;;;;7.08;100.00;102187.39;109178;1272;22869;-76
2024/01/29 11:29:03;;;;;;;36.20;28.10;;;;;;;7.12;100.00;102180.48;109188;1272;22057;-77
2024/01/29 11:32:40;;;;;;;;;;;;;;;;;;;;;
2024/01/29 11:35:34;;;;;;;38.10;29.70;;;;;;;7.37;100.00;102183.38;109339;1270;22061;-78
2024/01/29 11:38:30;;;;;;;40.60;32.80;;;;;;;7.44;100.00;102178.05;109689;1270;22010;-77
2024/01/29 11:41:24;;;;;;;34.00;28.30;;;;;;;7.44;100.00;102168.52;109776;1270;21999;-78
2024/01/29 11:44:31;;;;;;;28.80;24.20;;;;;;;7.39;100.00;102161.56;109592;1270;21998;-76
2024/01/29 11:47:34;;;;;;;;;;;;;;;;;;;;;
2024/01/29 11:51:04;;;;;;;;;;;;;;;;;;;;;
2024/01/29 11:53:53;;;;;;;29.40;26.00;;;;;;;6.96;100.00;102138.85;109123;1274;21977;-75
2024/01/29 11:56:40;;;;;;;36.80;29.60;;;;;;;6.88;100.00;102138.98;108902;1274;23061;-78
2024/01/29 11:59:16;;;;;;;36.90;28.60;;;;;;;6.81;100.00;102139.27;108832;1280;21993;-77
2024/01/29 12:02:08;;;;;;;29.90;25.40;;;;;;;6.74;100.00;102138.36;108335;1286;22899;-77
2024/01/29 12:04:46;;;;;;;27.80;24.80;;;;;;;6.62;100.00;102129.11;108350;1286;23966;-76
2024/01/29 12:07:23;;;;;;;33.80;25.50;;;;;;;6.69;100.00;102128.98;108300;1286;22001;-77
2024/01/29 12:10:27;;;;;;;33.60;26.80;;;;;;;6.70;100.00;102129.00;108200;1288;22000;-82
2024/01/29 12:13:14;;;;;;;31.80;24.40;;;;;;;6.73;100.00;102130.58;108758;1282;22053;-85
2024/01/29 12:16:24;;;;;;;28.30;23.20;;;;;;;6.65;100.00;102114.60;109167;1282;22081;-81
2024/01/29 12:19:09;;;;;;;29.60;26.40;;;;;;;6.77;100.00;102131.10;109222;1276;22018;-82
2024/01/29 12:26:33;;;;;;;32.70;24.50;;;;;;;6.80;100.00;102126.64;109502;1277;22771;-80
2024/01/29 12:38:44;;;;;;;;;;;;;;;;;;;;;
2024/01/29 12:42:18;;;;;;;29.10;24.30;;;;;;;7.18;100.00;102104.69;109350;1273;22983;-82
2024/01/29 12:45:46;;;;;;;40.90;29.30;;;;;;;7.32;100.00;102104.04;108989;1286;23708;-79
2024/01/29 12:49:22;;;;;;;;;;;;;;;7.45;100.00;102103.05;108543;1291;23750;-80
2024/01/29 12:53:11;;;;;;;;;;;;;;;;;;;;;
2024/01/29 13:00:45;;;;;;;;;;;;;;;;;;;;;
2024/01/29 13:08:51;;;;;;;;;;;;;;;;;;;;;
2024/01/29 13:16:56;;;;;;;;;;;;;;;;;;;;;
2024/01/29 13:20:26;;;;;;;;;;;;;;;;;;;;;
2024/01/29 13:23:51;;;;;;;;;;;;;;;;;;;;;
2024/01/29 13:30:50;;;;;;;;;;;;;;;;;;;;;
2024/01/29 13:34:47;;;;;;;22.80;18.20;;;;;;;7.58;100.00;102097.02;108523;1289;23685;-80
2024/01/29 13:41:26;;;;;;;22.40;16.60;;;;;;;7.64;100.00;102082.48;107595;1293;22009;-80
2024/01/29 13:52:55;;;;;;;;;;;;;;;;;;;;;
2024/01/29 13:56:51;;;;;;;22.60;15.60;;;;;;;7.58;100.00;102061.52;108703;1282;23051;-81
2024/01/29 14:00:28;;;;;;;;;;;;;;;;;;;;;
2024/01/29 14:07:20;;;;;;;24.10;17.50;;;;;;;7.59;100.00;102062.37;108244;1287;24343;-78
2024/01/29 14:11:32;;;;;;;28.90;18.00;;;;;;;7.62;100.00;102062.55;107895;1292;22018;-80
2024/01/29 14:37:29;;;;;;;25.50;19.70;;;;;;;7.57;100.00;102071.02;107952;1297;23078;-81
2024/01/29 14:39:57;;;;;;;30.30;22.00;;;;;;;7.57;100.00;102067.22;107840;1290;22046;-81
2024/01/29 14:42:40;;;;;;;27.90;22.10;;;;;;;7.57;100.00;102064.27;108468;1290;23747;-79
2024/01/29 14:45:23;;;;;;;30.80;21.10;;;;;;;7.59;100.00;102073.46;108811;1290;22012;-79
2024/01/29 14:48:08;;;;;;;28.50;21.30;;;;;;;7.58;100.00;102074.84;108973;1281;23643;-78
2024/01/29 14:50:37;;;;;;;29.50;22.60;;;;;;;7.57;100.00;102075.18;109839;1259;21970;-78
2024/01/29 14:53:10;;;;;;;26.70;19.00;;;;;;;7.56;100.00;102074.14;111330;1259;22010;-79
2024/01/29 14:55:42;;;;;;;28.80;21.30;;;;;;;7.52;100.00;102075.70;110167;1265;21989;-79
2024/01/29 14:58:14;;;;;;;29.00;19.50;;;;;;;7.49;100.00;102075.52;110647;1265;21981;-78
2024/01/29 15:00:44;;;;;;;;;;;;;;;7.43;100.00;102076.71;110156;1265;21965;-79
2024/01/29 15:03:14;;;;;;;27.40;18.40;;;;;;;7.32;100.00;102081.54;110689;1265;22723;-79
2024/01/29 15:05:47;;;;;;;23.60;18.10;;;;;;;7.28;100.00;102080.65;110921;1264;21980;-78
2024/01/29 15:08:21;;;;;;;28.30;21.40;;;;;;;7.25;100.00;102073.54;110616;1265;23139;-80
2024/01/29 15:10:56;;;;;;;25.20;18.50;;;;;;;7.23;100.00;102069.89;110635;1265;22317;-78
2024/01/29 15:13:35;;;;;;;28.10;23.40;;;;;;;7.21;100.00;102069.02;110095;1262;22800;-80
2024/01/29 15:16:06;;;;;;;27.00;20.70;;;;;;;7.20;100.00;102069.70;110538;1262;23767;-79
2024/01/29 15:18:37;;;;;;;27.50;20.10;;;;;;;7.18;100.00;102068.84;110429;1263;22023;-78
2024/01/29 15:21:08;;;;;;;33.60;21.00;;;;;;;7.16;100.00;102077.31;110664;1263;21985;-79
2024/01/29 15:23:42;;;;;;;32.60;21.40;;;;;;;7.13;100.00;102080.77;110839;1263;21992;-84
2024/01/29 15:26:16;;;;;;;30.90;21.90;;;;;;;7.08;100.00;102080.56;110476;1270;21993;-80
2024/01/29 15:29:15;;;;;;;33.60;22.30;;;;;;;7.04;100.00;102079.86;110137;1270;22012;-80
2024/01/29 15:33:10;;;;;;;;;;;;;;;;;;;;;
2024/01/29 15:38:03;;;;;;;36.30;23.10;;;;;;;6.72;100.00;102074.16;108982;1283;21999;-80
2024/01/29 15:41:11;;;;;;;34.40;25.00;;;;;;;6.62;100.00;102075.48;108520;1289;22460;-80
2024/01/29 15:44:07;;;;;;;;;;;;;;;;;;;;;
2024/01/29 15:47:22;;;;;;;30.60;23.90;;;;;;;6.63;100.00;102088.98;108937;1284;22014;-83
2024/01/29 15:50:44;;;;;;;40.20;26.40;;;;;;;6.63;100.00;102096.60;108606;1289;22008;-82
2024/01/29 15:54:15;;;;;;;45.70;35.00;;;;;;;6.61;100.00;102097.11;108234;1294;22042;-81
2024/01/29 15:57:52;;;;;;;34.40;28.00;;;;;;;6.74;100.00;102079.53;107899;1296;548347;-83
2024/01/29 16:01:21;;;;;;;;;;;;;;;;;;;;;
2024/01/29 16:04:57;;;;;;;;;;;;;;;;;;;;;
2024/01/29 16:08:40;;;;;;;50.00;37.50;;;;;;;6.33;100.00;102090.86;108647;1287;22036;-84
2024/01/29 16:12:07;;;;;;;;;;;;;;;;;;;;;
2024/01/29 16:15:30;;;;;;;39.60;32.60;;;;;;;6.28;100.00;102108.09;108823;1289;22343;-83
2024/01/29 16:18:38;;;;;;;36.20;26.00;;;;;;;6.14;100.00;102093.81;108537;1289;23755;-82
2024/01/29 16:22:04;;;;;;;39.00;27.80;;;;;;;6.24;100.00;102110.33;108525;1289;23879;-81
2024/01/29 16:29:43;;;;;;;41.80;30.70;;;;;;;6.04;100.00;102095.28;107285;1302;22037;-82
2024/01/29 16:32:48;;;;;;;;;;;;;;;;;;;;;
2024/01/29 16:36:45;;;;;;;;;;;;;;;;;;;;;
2024/01/29 16:39:58;;;;;;;61.80;44.50;;;;;;;5.91;100.00;102099.98;108109;1293;21785;-83
2024/01/29 16:43:36;;;;;;;47.20;35.80;;;;;;;5.87;100.00;102093.19;108632;1283;24484;-81
2024/01/29 16:46:31;;;;;;;49.60;35.40;;;;;;;5.82;100.00;102093.67;108783;1281;22015;-84
2024/01/29 16:49:27;;;;;;;43.90;32.30;;;;;;;5.80;100.00;102094.16;109152;1281;21999;-87
2024/01/29 16:52:41;;;;;;;42.20;30.80;;;;;;;5.77;100.00;102099.32;109156;1282;23637;-79
2024/01/29 16:55:20;;;;;;;37.00;28.90;;;;;;;5.75;100.00;102100.50;108909;1282;23145;-82
2024/01/29 16:57:55;;;;;;;41.50;30.40;;;;;;;5.74;100.00;102097.90;109073;1273;22011;-85
2024/01/29 17:00:49;;;;;;;42.00;32.00;;;;;;;5.68;100.00;102094.55;109568;1273;22079;-87
2024/01/29 17:04:34;;;;;;;32.80;26.00;;;;;;;5.65;100.00;102095.91;109841;1271;21943;-87
2024/01/29 17:07:51;;;;;;;35.50;24.00;;;;;;;5.59;100.00;102092.05;110693;1265;23075;-86
2024/01/29 17:11:29;;;;;;;;;;;;;;;;;;;;;
2024/01/29 17:14:24;;;;;;;35.00;25.20;;;;;;;5.51;100.00;102090.92;110326;1268;23713;-87
2024/01/29 17:17:11;;;;;;;29.70;23.20;;;;;;;5.52;100.00;102086.10;110209;1266;22026;-85
2024/01/29 17:20:59;;;;;;;35.80;25.70;;;;;;;5.51;100.00;102084.88;110637;1265;23007;-82
2024/01/29 17:24:49;;;;;;;40.50;33.70;;;;;;;5.45;100.00;102080.84;109982;1270;21991;-83
2024/01/29 17:28:14;;;;;;;37.30;26.60;;;;;;;5.44;100.00;102081.18;109958;1265;22148;-82
2024/01/29 17:32:04;;;;;;;38.50;27.80;;;;;;;5.30;100.00;102069.46;110726;1262;21978;-83
2024/01/29 17:39:28;;;;;;;49.40;39.40;;;;;;;5.29;100.00;102074.80;109626;1272;23125;-82
2024/01/29 17:43:13;;;;;;;;;;;;;;;;;;;;;
2024/01/29 17:47:34;;;;;;;;;;;;;;;;;;;;;
2024/01/29 18:02:10;;;;;;;47.80;33.80;;;;;;;6.70;100.00;102079.80;108546;1278;548047;-86
2024/01/29 18:05:17;;;;;;;39.30;27.70;;;;;;;6.73;100.00;102069.98;110337;1261;326396;-85
2024/01/29 18:12:29;;;;;;;35.20;24.90;;;;;;;5.88;100.00;102067.47;110295;1266;23629;-83